createdAt,value
2018-08-06T00:00:48.336Z,16.96
2018-08-06T00:01:48.322Z,17.03
2018-08-06T00:02:48.308Z,17.03
2018-08-06T00:03:48.292Z,16.94
2018-08-06T00:04:48.277Z,16.97
2018-08-06T00:05:48.263Z,16.96
2018-08-06T00:06:48.246Z,17.11
2018-08-06T00:07:48.237Z,17.08
2018-08-06T00:08:48.216Z,17.07
2018-08-06T00:09:48.206Z,17.08
2018-08-06T00:10:48.188Z,17.00
2018-08-06T00:11:48.172Z,16.97
2018-08-06T00:12:48.155Z,16.96
2018-08-06T00:13:48.143Z,17.00
2018-08-06T00:14:48.131Z,16.94
2018-08-06T00:15:48.121Z,16.97
2018-08-06T00:16:48.097Z,16.96
2018-08-06T00:17:48.084Z,16.88
2018-08-06T00:18:48.068Z,16.98
2018-08-06T00:19:48.054Z,16.89
2018-08-06T00:20:48.042Z,16.91
2018-08-06T00:21:48.028Z,16.93
2018-08-06T00:22:48.011Z,16.78
2018-08-06T00:23:47.998Z,16.83
2018-08-06T00:24:47.978Z,16.75
2018-08-06T00:25:47.964Z,16.76
2018-08-06T00:26:47.950Z,16.67
2018-08-06T00:27:47.937Z,16.73
2018-08-06T00:28:47.921Z,16.79
2018-08-06T00:29:47.910Z,16.67
2018-08-06T00:30:47.889Z,16.63
2018-08-06T00:31:47.881Z,16.67
2018-08-06T00:32:47.864Z,16.68
2018-08-06T00:33:47.844Z,16.66
2018-08-06T00:34:47.831Z,16.53
2018-08-06T00:35:47.819Z,16.53
2018-08-06T00:36:47.804Z,16.66
2018-08-06T00:37:47.826Z,16.60
2018-08-06T00:38:47.771Z,16.58
2018-08-06T00:39:47.756Z,16.66
2018-08-06T00:40:47.740Z,16.67
2018-08-06T00:41:47.726Z,16.63
2018-08-06T00:42:47.712Z,16.60
2018-08-06T00:43:47.697Z,16.61
2018-08-06T00:44:47.681Z,16.58
2018-08-06T00:45:47.665Z,16.57
2018-08-06T00:46:47.653Z,16.53
2018-08-06T00:47:47.637Z,16.56
2018-08-06T00:48:47.626Z,16.57
2018-08-06T00:49:47.606Z,16.46
2018-08-06T00:50:47.590Z,16.56
2018-08-06T00:51:47.581Z,16.52
2018-08-06T00:52:47.561Z,16.52
2018-08-06T00:53:47.549Z,16.60
2018-08-06T00:54:47.531Z,16.60
2018-08-06T00:55:47.514Z,16.57
2018-08-06T00:56:47.500Z,16.66
2018-08-06T00:57:47.485Z,16.60
2018-08-06T00:58:47.469Z,16.58
2018-08-06T00:59:47.462Z,16.64
2018-08-06T01:00:47.440Z,16.60
2018-08-06T01:01:47.424Z,16.64
2018-08-06T01:02:47.419Z,16.66
2018-08-06T01:03:47.397Z,16.64
2018-08-06T01:04:47.379Z,16.60
2018-08-06T01:05:47.363Z,16.70
2018-08-06T01:06:47.349Z,16.76
2018-08-06T01:07:47.336Z,16.68
2018-08-06T01:08:47.318Z,16.68
2018-08-06T01:09:47.303Z,16.58
2018-08-06T01:10:47.288Z,16.66
2018-08-06T01:11:47.275Z,16.66
2018-08-06T01:12:47.261Z,16.70
2018-08-06T01:13:47.242Z,16.58
2018-08-06T01:14:47.228Z,16.66
2018-08-06T01:15:47.211Z,16.53
2018-08-06T01:16:47.197Z,16.49
2018-08-06T01:17:47.181Z,16.56
2018-08-06T01:18:47.167Z,16.56
2018-08-06T01:19:47.152Z,16.52
2018-08-06T01:20:47.140Z,16.49
2018-08-06T01:21:47.123Z,16.45
2018-08-06T01:22:47.107Z,16.45
2018-08-06T01:23:47.093Z,16.42
2018-08-06T01:24:47.076Z,16.49
2018-08-06T01:25:47.061Z,16.42
2018-08-06T01:26:47.044Z,16.41
2018-08-06T01:27:47.031Z,16.42
2018-08-06T01:28:47.015Z,16.49
2018-08-06T01:29:46.999Z,16.43
2018-08-06T01:30:46.987Z,16.38
2018-08-06T01:31:46.970Z,16.35
2018-08-06T01:32:46.958Z,16.31
2018-08-06T01:33:46.939Z,16.34
2018-08-06T01:34:46.927Z,16.35
2018-08-06T01:35:46.908Z,16.27
2018-08-06T01:36:46.897Z,16.30
2018-08-06T01:37:46.877Z,16.24
2018-08-06T01:38:46.860Z,16.34
2018-08-06T01:39:46.846Z,16.23
2018-08-06T01:40:46.831Z,16.21
2018-08-06T01:41:46.815Z,16.15
2018-08-06T01:42:46.799Z,16.11
2018-08-06T01:43:46.786Z,16.21
2018-08-06T01:44:46.776Z,16.17
2018-08-06T01:45:46.810Z,16.20
2018-08-06T01:46:46.740Z,16.20
2018-08-06T01:47:46.727Z,16.21
2018-08-06T01:48:46.710Z,16.12
2018-08-06T01:49:46.695Z,16.11
2018-08-06T01:50:46.679Z,16.21
2018-08-06T01:51:46.663Z,16.20
2018-08-06T01:52:46.651Z,16.15
2018-08-06T01:53:46.631Z,16.14
2018-08-06T01:54:46.616Z,16.09
2018-08-06T01:55:46.601Z,16.07
2018-08-06T01:56:46.585Z,16.12
2018-08-06T01:57:46.571Z,16.09
2018-08-06T01:58:46.556Z,16.00
2018-08-06T01:59:46.538Z,15.96
2018-08-06T02:00:46.522Z,15.96
2018-08-06T02:01:46.514Z,15.93
2018-08-06T02:02:46.500Z,15.90
2018-08-06T02:03:46.477Z,15.97
2018-08-06T02:04:46.465Z,15.96
2018-08-06T02:05:46.446Z,16.05
2018-08-06T02:06:46.430Z,16.00
2018-08-06T02:07:46.416Z,15.87
2018-08-06T02:08:46.403Z,15.97
2018-08-06T02:09:46.384Z,15.90
2018-08-06T02:10:46.369Z,16.00
2018-08-06T02:11:46.553Z,15.92
2018-08-06T02:12:46.342Z,15.94
2018-08-06T02:13:46.324Z,15.93
2018-08-06T02:14:46.311Z,15.89
2018-08-06T02:15:46.291Z,15.94
2018-08-06T02:16:46.277Z,15.94
2018-08-06T02:17:46.260Z,15.94
2018-08-06T02:18:46.245Z,15.96
2018-08-06T02:19:46.230Z,15.97
2018-08-06T02:20:46.212Z,15.94
2018-08-06T02:21:46.198Z,15.93
2018-08-06T02:22:46.187Z,15.96
2018-08-06T02:23:46.171Z,15.93
2018-08-06T02:24:46.151Z,16.00
2018-08-06T02:25:46.136Z,16.05
2018-08-06T02:26:46.171Z,16.05
2018-08-06T02:27:46.104Z,16.09
2018-08-06T02:28:46.094Z,15.96
2018-08-06T02:29:46.074Z,16.01
2018-08-06T02:30:46.060Z,15.96
2018-08-06T02:31:46.043Z,15.89
2018-08-06T02:32:46.026Z,15.93
2018-08-06T02:33:46.014Z,15.90
2018-08-06T02:34:45.996Z,15.97
2018-08-06T02:35:45.984Z,15.92
2018-08-06T02:36:45.964Z,15.96
2018-08-06T02:37:45.949Z,15.84
2018-08-06T02:38:45.935Z,15.89
2018-08-06T02:39:45.919Z,15.86
2018-08-06T02:40:45.903Z,15.89
2018-08-06T02:41:45.884Z,15.94
2018-08-06T02:42:45.870Z,15.90
2018-08-06T02:43:45.855Z,15.87
2018-08-06T02:44:45.842Z,15.87
2018-08-06T02:45:45.822Z,15.82
2018-08-06T02:46:45.811Z,15.78
2018-08-06T02:47:45.793Z,15.72
2018-08-06T02:48:45.775Z,15.69
2018-08-06T02:49:45.759Z,15.69
2018-08-06T02:50:45.743Z,15.76
2018-08-06T02:51:45.728Z,15.68
2018-08-06T02:52:45.719Z,15.65
2018-08-06T02:53:45.697Z,15.68
2018-08-06T02:54:45.682Z,15.62
2018-08-06T02:55:45.668Z,15.72
2018-08-06T02:56:45.650Z,15.67
2018-08-06T02:57:45.634Z,15.57
2018-08-06T02:58:45.620Z,15.64
2018-08-06T02:59:45.606Z,15.60
2018-08-06T03:00:45.588Z,15.67
2018-08-06T03:01:45.572Z,15.64
2018-08-06T03:02:45.556Z,15.57
2018-08-06T03:03:45.541Z,15.68
2018-08-06T03:04:45.525Z,15.68
2018-08-06T03:05:45.507Z,15.69
2018-08-06T03:06:45.496Z,15.64
2018-08-06T03:07:45.477Z,15.57
2018-08-06T03:08:45.465Z,15.60
2018-08-06T03:09:45.445Z,15.51
2018-08-06T03:10:45.430Z,15.57
2018-08-06T03:11:45.415Z,15.64
2018-08-06T03:12:45.397Z,15.62
2018-08-06T03:13:45.385Z,15.56
2018-08-06T03:14:45.365Z,15.56
2018-08-06T03:15:45.349Z,15.56
2018-08-06T03:16:45.334Z,15.51
2018-08-06T03:17:45.319Z,15.57
2018-08-06T03:18:45.305Z,15.57
2018-08-06T03:19:45.288Z,15.54
2018-08-06T03:20:45.272Z,15.53
2018-08-06T03:21:45.255Z,15.57
2018-08-06T03:22:45.239Z,15.60
2018-08-06T03:23:45.224Z,15.51
2018-08-06T03:24:45.209Z,15.43
2018-08-06T03:25:45.191Z,15.50
2018-08-06T03:26:45.179Z,15.64
2018-08-06T03:27:45.160Z,15.44
2018-08-06T03:28:45.145Z,15.49
2018-08-06T03:29:45.141Z,15.54
2018-08-06T03:30:45.118Z,15.56
2018-08-06T03:31:45.097Z,15.56
2018-08-06T03:32:45.081Z,15.51
2018-08-06T03:33:45.065Z,15.57
2018-08-06T03:34:45.049Z,15.56
2018-08-06T03:35:45.033Z,15.60
2018-08-06T03:36:45.018Z,15.54
2018-08-06T03:37:45.003Z,15.67
2018-08-06T03:38:44.986Z,15.54
2018-08-06T03:39:44.982Z,15.65
2018-08-06T03:40:44.953Z,15.68
2018-08-06T03:41:44.938Z,15.74
2018-08-06T03:42:44.926Z,15.68
2018-08-06T03:43:44.907Z,15.62
2018-08-06T03:44:44.891Z,15.53
2018-08-06T03:45:44.875Z,15.49
2018-08-06T03:46:44.857Z,15.49
2018-08-06T03:47:44.843Z,15.59
2018-08-06T03:48:44.825Z,15.51
2018-08-06T03:49:44.813Z,15.51
2018-08-06T03:51:10.891Z,15.44
2018-08-06T03:52:10.849Z,15.44
2018-08-06T03:53:10.835Z,15.43
2018-08-06T03:54:10.819Z,15.50
2018-08-06T03:55:10.803Z,15.43
2018-08-06T03:56:10.790Z,15.49
2018-08-06T03:57:10.769Z,15.43
2018-08-06T03:58:10.754Z,15.46
2018-08-06T03:59:10.740Z,15.53
2018-08-06T04:00:10.721Z,15.57
2018-08-06T04:01:10.708Z,15.57
2018-08-06T04:02:10.690Z,15.60
2018-08-06T04:03:10.675Z,15.51
2018-08-06T04:04:10.658Z,15.54
2018-08-06T04:05:10.642Z,15.44
2018-08-06T04:06:10.627Z,15.53
2018-08-06T04:07:10.609Z,15.50
2018-08-06T04:08:10.594Z,15.54
2018-08-06T04:09:10.581Z,15.53
2018-08-06T04:10:10.563Z,15.54
2018-08-06T04:11:10.545Z,15.53
2018-08-06T04:12:10.530Z,15.53
2018-08-06T04:13:10.514Z,15.53
2018-08-06T04:14:10.498Z,15.46
2018-08-06T04:15:10.486Z,15.54
2018-08-06T04:16:10.468Z,15.53
2018-08-06T04:17:10.450Z,15.43
2018-08-06T04:18:10.435Z,15.56
2018-08-06T04:19:10.417Z,15.46
2018-08-06T04:20:10.407Z,15.56
2018-08-06T04:21:10.392Z,15.53
2018-08-06T04:22:10.373Z,15.54
2018-08-06T04:23:10.353Z,15.46
2018-08-06T04:24:10.340Z,15.53
2018-08-06T04:25:10.325Z,15.54
2018-08-06T04:26:10.306Z,15.47
2018-08-06T04:27:10.290Z,15.56
2018-08-06T04:28:10.274Z,15.51
2018-08-06T04:29:10.259Z,15.53
2018-08-06T04:30:10.243Z,15.53
2018-08-06T04:31:10.226Z,15.53
2018-08-06T04:32:10.211Z,15.56
2018-08-06T04:33:10.233Z,15.54
2018-08-06T04:34:10.180Z,15.53
2018-08-06T04:35:10.166Z,15.56
2018-08-06T04:36:10.151Z,15.60
2018-08-06T04:37:10.131Z,15.67
2018-08-06T04:38:10.113Z,15.65
2018-08-06T04:39:10.098Z,15.71
2018-08-06T04:40:10.082Z,15.72
2018-08-06T04:41:10.070Z,15.74
2018-08-06T04:42:10.052Z,15.75
2018-08-06T04:43:10.037Z,15.71
2018-08-06T04:44:10.019Z,15.83
2018-08-06T04:45:10.002Z,15.93
2018-08-06T04:46:09.988Z,15.90
2018-08-06T04:47:09.974Z,15.90
2018-08-06T04:48:09.964Z,15.89
2018-08-06T04:49:09.944Z,16.05
2018-08-06T04:50:09.929Z,16.04
2018-08-06T04:51:09.913Z,16.04
2018-08-06T04:52:09.896Z,16.09
2018-08-06T04:53:09.875Z,16.15
2018-08-06T04:54:09.864Z,16.15
2018-08-06T04:55:09.843Z,16.17
2018-08-06T04:56:09.827Z,16.20
2018-08-06T04:57:09.815Z,16.30
2018-08-06T04:58:09.796Z,16.35
2018-08-06T04:59:09.779Z,16.48
2018-08-06T05:00:09.763Z,16.43
2018-08-06T05:01:09.747Z,16.45
2018-08-06T05:02:09.740Z,16.50
2018-08-06T05:03:09.717Z,16.63
2018-08-06T05:04:09.702Z,16.75
2018-08-06T05:05:09.686Z,16.75
2018-08-06T05:06:09.669Z,16.78
2018-08-06T05:07:09.657Z,16.83
2018-08-06T05:08:09.638Z,16.83
2018-08-06T05:09:09.622Z,17.01
2018-08-06T05:10:09.608Z,16.93
2018-08-06T05:11:09.595Z,17.11
2018-08-06T05:12:09.576Z,17.18
2018-08-06T05:13:09.560Z,17.22
2018-08-06T05:14:09.546Z,17.21
2018-08-06T05:15:09.529Z,17.28
2018-08-06T05:16:09.514Z,17.38
2018-08-06T05:17:09.501Z,17.40
2018-08-06T05:18:09.482Z,17.43
2018-08-06T05:19:09.465Z,17.54
2018-08-06T05:20:09.453Z,17.56
2018-08-06T05:21:09.435Z,17.56
2018-08-06T05:22:09.419Z,17.77
2018-08-06T05:23:09.409Z,17.68
2018-08-06T05:24:09.389Z,17.74
2018-08-06T05:25:09.377Z,17.87
2018-08-06T05:26:09.364Z,17.93
2018-08-06T05:27:09.342Z,17.96
2018-08-06T05:28:09.333Z,18.10
2018-08-06T05:29:09.313Z,18.07
2018-08-06T05:30:09.299Z,18.17
2018-08-06T05:31:09.287Z,18.18
2018-08-06T05:32:09.266Z,18.25
2018-08-06T05:33:09.253Z,18.32
2018-08-06T05:34:09.234Z,18.30
2018-08-06T05:35:09.224Z,18.36
2018-08-06T05:36:09.203Z,18.35
2018-08-06T05:37:09.188Z,18.39
2018-08-06T05:38:09.176Z,18.47
2018-08-06T05:39:09.160Z,18.50
2018-08-06T05:40:09.286Z,18.57
2018-08-06T05:41:09.129Z,18.58
2018-08-06T05:42:09.117Z,18.70
2018-08-06T05:43:09.099Z,18.65
2018-08-06T05:44:09.083Z,18.65
2018-08-06T05:45:09.069Z,18.82
2018-08-06T05:46:09.058Z,18.80
2018-08-06T05:47:09.039Z,18.84
2018-08-06T05:48:09.027Z,18.85
2018-08-06T05:49:09.009Z,18.91
2018-08-06T05:50:08.997Z,18.92
2018-08-06T05:51:08.979Z,18.90
2018-08-06T05:52:08.965Z,19.04
2018-08-06T05:53:08.960Z,19.11
2018-08-06T05:54:08.936Z,18.99
2018-08-06T05:55:08.921Z,19.13
2018-08-06T05:56:08.907Z,19.18
2018-08-06T05:57:08.891Z,19.16
2018-08-06T05:58:08.876Z,19.28
2018-08-06T05:59:08.861Z,19.22
2018-08-06T06:00:08.850Z,19.32
2018-08-06T06:01:08.832Z,19.32
2018-08-06T06:02:08.820Z,19.31
2018-08-06T06:03:08.825Z,19.36
2018-08-06T06:04:08.789Z,19.44
2018-08-06T06:05:08.775Z,19.56
2018-08-06T06:06:08.762Z,19.48
2018-08-06T06:07:08.745Z,19.54
2018-08-06T06:08:08.730Z,19.58
2018-08-06T06:09:08.717Z,19.66
2018-08-06T06:10:08.703Z,19.68
2018-08-06T06:11:08.688Z,19.73
2018-08-06T06:12:08.675Z,19.83
2018-08-06T06:13:08.662Z,19.80
2018-08-06T06:14:08.645Z,19.81
2018-08-06T06:15:08.631Z,19.80
2018-08-06T06:16:08.618Z,19.83
2018-08-06T06:17:08.602Z,19.98
2018-08-06T06:18:08.589Z,20.05
2018-08-06T06:19:08.635Z,20.02
2018-08-06T06:20:08.559Z,20.11
2018-08-06T06:21:08.545Z,20.16
2018-08-06T06:22:08.532Z,20.08
2018-08-06T06:23:08.518Z,20.16
2018-08-06T06:24:08.503Z,20.20
2018-08-06T06:25:08.492Z,20.28
2018-08-06T06:26:08.481Z,20.28
2018-08-06T06:27:08.461Z,20.35
2018-08-06T06:28:08.449Z,20.32
2018-08-06T06:29:08.435Z,20.36
2018-08-06T06:30:08.420Z,20.36
2018-08-06T06:31:08.412Z,20.54
2018-08-06T06:32:08.393Z,20.54
2018-08-06T06:33:08.382Z,20.55
2018-08-06T06:34:08.370Z,20.58
2018-08-06T06:35:08.395Z,20.69
2018-08-06T06:36:08.340Z,20.67
2018-08-06T06:37:08.325Z,20.77
2018-08-06T06:38:08.311Z,20.82
2018-08-06T06:39:08.298Z,20.79
2018-08-06T06:40:08.294Z,20.87
2018-08-06T06:41:08.271Z,20.94
2018-08-06T06:42:08.256Z,20.95
2018-08-06T06:43:08.242Z,21.04
2018-08-06T06:44:08.232Z,21.07
2018-08-06T06:45:08.215Z,21.03
2018-08-06T06:46:08.210Z,21.04
2018-08-06T06:47:08.190Z,21.10
2018-08-06T06:48:08.177Z,21.19
2018-08-06T06:49:08.199Z,21.27
2018-08-06T06:50:08.150Z,21.31
2018-08-06T06:51:08.136Z,21.31
2018-08-06T06:52:08.132Z,21.29
2018-08-06T06:53:08.111Z,21.40
2018-08-06T06:54:08.096Z,21.54
2018-08-06T06:55:08.084Z,21.42
2018-08-06T06:56:08.074Z,21.53
2018-08-06T06:57:08.058Z,21.58
2018-08-06T06:58:08.057Z,21.58
2018-08-06T06:59:08.029Z,21.62
2018-08-06T07:00:08.044Z,21.56
2018-08-06T07:01:08.010Z,21.65
2018-08-06T07:02:07.996Z,21.72
2018-08-06T07:03:07.982Z,21.79
2018-08-06T07:04:07.968Z,21.84
2018-08-06T07:05:07.960Z,21.91
2018-08-06T07:06:07.942Z,21.90
2018-08-06T07:07:07.936Z,22.03
2018-08-06T07:08:07.917Z,22.07
2018-08-06T07:09:07.905Z,22.10
2018-08-06T07:10:07.892Z,22.10
2018-08-06T07:11:07.878Z,22.31
2018-08-06T07:12:07.869Z,22.18
2018-08-06T07:13:07.856Z,22.20
2018-08-06T07:14:07.906Z,22.24
2018-08-06T07:15:07.831Z,22.40
2018-08-06T07:16:07.819Z,22.42
2018-08-06T07:17:07.805Z,22.43
2018-08-06T07:18:07.800Z,22.51
2018-08-06T07:19:07.779Z,22.52
2018-08-06T07:20:07.772Z,22.57
2018-08-06T07:21:07.757Z,22.64
2018-08-06T07:22:07.757Z,22.67
2018-08-06T07:23:07.735Z,22.65
2018-08-06T07:24:07.719Z,22.80
2018-08-06T07:25:07.715Z,22.83
2018-08-06T07:26:07.779Z,23.04
2018-08-06T07:27:07.687Z,23.05
2018-08-06T07:28:07.671Z,23.15
2018-08-06T07:29:07.661Z,23.32
2018-08-06T07:30:07.649Z,23.51
2018-08-06T07:31:07.636Z,23.87
2018-08-06T07:32:07.622Z,24.15
2018-08-06T07:33:07.613Z,24.68
2018-08-06T07:34:07.606Z,25.28
2018-08-06T07:35:07.589Z,25.88
2018-08-06T07:36:07.582Z,26.50
2018-08-06T07:37:07.569Z,26.99
2018-08-06T07:38:07.559Z,27.60
2018-08-06T07:39:07.543Z,28.27
2018-08-06T07:40:07.593Z,28.96
2018-08-06T07:41:07.563Z,29.42
2018-08-06T07:42:07.508Z,29.92
2018-08-06T07:43:07.513Z,30.13
2018-08-06T07:44:07.485Z,30.43
2018-08-06T07:45:07.476Z,30.75
2018-08-06T07:46:07.466Z,30.84
2018-08-06T07:47:07.542Z,29.92
2018-08-06T07:48:07.449Z,30.24
2018-08-06T07:49:07.441Z,30.58
2018-08-06T07:50:07.435Z,30.97
2018-08-06T07:51:07.424Z,31.25
2018-08-06T07:52:07.408Z,31.58
2018-08-06T07:53:07.401Z,31.88
2018-08-06T07:54:07.396Z,32.13
2018-08-06T07:55:07.382Z,32.35
2018-08-06T07:56:07.376Z,32.21
2018-08-06T07:57:07.370Z,31.99
2018-08-06T07:58:07.361Z,32.21
2018-08-06T07:59:07.354Z,32.50
2018-08-06T08:00:07.348Z,32.66
2018-08-06T08:01:07.342Z,32.78
2018-08-06T08:03:07.331Z,33.06
2018-08-06T08:04:07.325Z,33.19
2018-08-06T08:05:07.316Z,33.19
2018-08-06T08:06:07.315Z,33.16
2018-08-06T08:07:08.316Z,32.75
2018-08-06T08:08:07.299Z,32.67
2018-08-06T08:09:07.295Z,32.59
2018-08-06T08:10:07.297Z,32.32
2018-08-06T08:11:07.286Z,32.37
2018-08-06T08:12:07.282Z,32.25
2018-08-06T08:13:07.277Z,32.30
2018-08-06T08:14:07.283Z,32.37
2018-08-06T08:15:07.266Z,32.43
2018-08-06T08:16:07.269Z,32.56
2018-08-06T08:17:07.258Z,32.62
2018-08-06T08:18:07.260Z,32.57
2018-08-06T08:19:07.256Z,32.72
2018-08-06T08:20:07.322Z,32.85
2018-08-06T08:21:07.240Z,33.03
2018-08-06T08:22:07.237Z,33.34
2018-08-06T08:23:07.234Z,33.59
2018-08-06T08:24:07.231Z,33.88
2018-08-06T08:25:07.229Z,34.30
2018-08-06T08:26:07.225Z,34.73
2018-08-06T08:27:07.223Z,35.18
2018-08-06T08:28:07.218Z,35.53
2018-08-06T08:29:07.213Z,36.05
2018-08-06T08:30:07.212Z,36.44
2018-08-06T08:31:07.208Z,36.43
2018-08-06T08:32:07.203Z,36.32
2018-08-06T08:33:07.206Z,36.47
2018-08-06T08:34:07.298Z,36.68
2018-08-06T08:35:07.194Z,37.00
2018-08-06T08:36:07.194Z,37.18
2018-08-06T08:37:07.189Z,37.34
2018-08-06T08:38:07.188Z,37.49
2018-08-06T08:39:07.792Z,37.36
2018-08-06T08:40:07.181Z,37.10
2018-08-06T08:41:07.178Z,37.20
2018-08-06T08:42:07.176Z,37.13
2018-08-06T08:43:07.175Z,37.17
2018-08-06T08:44:07.175Z,37.18
2018-08-06T08:45:07.170Z,37.40
2018-08-06T08:46:07.167Z,37.31
2018-08-06T08:47:07.165Z,37.28
2018-08-06T08:48:07.169Z,37.28
2018-08-06T08:49:07.160Z,37.15
2018-08-06T08:50:07.159Z,37.05
2018-08-06T08:51:07.166Z,37.12
2018-08-06T08:52:07.155Z,37.00
2018-08-06T08:53:07.160Z,36.71
2018-08-06T08:54:07.151Z,36.69
2018-08-06T08:55:07.151Z,36.46
2018-08-06T08:56:07.146Z,36.22
2018-08-06T08:57:07.141Z,36.01
2018-08-06T08:58:07.141Z,35.77
2018-08-06T08:59:07.144Z,35.47
2018-08-06T09:00:07.136Z,35.38
2018-08-06T09:01:07.135Z,35.23
2018-08-06T09:02:07.135Z,35.16
2018-08-06T09:03:07.128Z,35.16
2018-08-06T09:04:07.125Z,34.99
2018-08-06T09:05:07.123Z,34.92
2018-08-06T09:06:07.120Z,34.94
2018-08-06T09:07:07.117Z,34.91
2018-08-06T09:08:07.114Z,34.77
2018-08-06T09:09:07.111Z,34.75
2018-08-06T09:10:07.111Z,34.62
2018-08-06T09:11:07.114Z,34.46
2018-08-06T09:12:07.102Z,34.43
2018-08-06T09:13:07.103Z,34.31
2018-08-06T09:14:07.205Z,34.30
2018-08-06T09:15:07.094Z,34.32
2018-08-06T09:16:07.095Z,34.28
2018-08-06T09:17:07.087Z,34.30
2018-08-06T09:18:07.084Z,34.16
2018-08-06T09:19:07.089Z,34.05
2018-08-06T09:20:07.078Z,33.90
2018-08-06T09:21:07.106Z,33.88
2018-08-06T09:22:07.071Z,33.76
2018-08-06T09:23:07.072Z,33.81
2018-08-06T09:24:07.064Z,33.72
2018-08-06T09:25:07.061Z,33.69
2018-08-06T09:26:07.058Z,33.71
2018-08-06T09:27:07.058Z,33.68
2018-08-06T09:28:07.049Z,33.69
2018-08-06T09:29:07.047Z,33.76
2018-08-06T09:30:07.045Z,33.73
2018-08-06T09:31:07.039Z,33.71
2018-08-06T09:32:07.039Z,33.65
2018-08-06T09:33:07.036Z,33.68
2018-08-06T09:34:07.113Z,33.53
2018-08-06T09:35:07.028Z,33.57
2018-08-06T09:36:07.025Z,33.56
2018-08-06T09:37:07.015Z,33.60
2018-08-06T09:38:07.012Z,33.68
2018-08-06T09:39:07.015Z,33.54
2018-08-06T09:40:07.011Z,33.39
2018-08-06T09:41:07.004Z,33.23
2018-08-06T09:42:07.002Z,33.09
2018-08-06T09:43:06.995Z,32.97
2018-08-06T09:44:06.990Z,32.85
2018-08-06T09:45:06.985Z,32.72
2018-08-06T09:46:06.982Z,32.55
2018-08-06T09:47:06.977Z,32.72
2018-08-06T09:48:06.973Z,32.60
2018-08-06T09:49:06.974Z,32.75
2018-08-06T09:50:06.967Z,32.88
2018-08-06T09:51:06.964Z,32.93
2018-08-06T09:52:06.956Z,32.79
2018-08-06T09:53:06.954Z,32.79
2018-08-06T09:54:06.956Z,32.75
2018-08-06T09:55:06.943Z,32.65
2018-08-06T09:56:06.942Z,32.67
2018-08-06T09:57:06.968Z,32.78
2018-08-06T09:58:06.933Z,33.00
2018-08-06T09:59:06.936Z,33.03
2018-08-06T10:00:06.924Z,33.16
2018-08-06T10:01:06.920Z,33.11
2018-08-06T10:02:06.919Z,33.21
2018-08-06T10:03:06.910Z,33.23
2018-08-06T10:04:06.908Z,33.29
2018-08-06T10:05:06.906Z,33.38
2018-08-06T10:06:06.980Z,33.68
2018-08-06T10:07:06.895Z,33.82
2018-08-06T10:08:06.892Z,33.82
2018-08-06T10:09:06.889Z,34.10
2018-08-06T10:10:06.885Z,34.17
2018-08-06T10:11:06.879Z,34.19
2018-08-06T10:12:06.951Z,34.13
2018-08-06T10:13:06.873Z,34.46
2018-08-06T10:14:06.871Z,34.58
2018-08-06T10:15:06.863Z,34.58
2018-08-06T10:16:06.860Z,34.75
2018-08-06T10:17:06.861Z,34.73
2018-08-06T10:18:06.861Z,34.84
2018-08-06T10:19:06.982Z,34.91
2018-08-06T10:20:06.850Z,34.92
2018-08-06T10:21:06.842Z,34.99
2018-08-06T10:22:06.839Z,35.06
2018-08-06T10:23:06.836Z,35.19
2018-08-06T10:24:06.837Z,35.50
2018-08-06T10:25:06.831Z,35.65
2018-08-06T10:26:06.829Z,35.75
2018-08-06T10:27:06.826Z,35.96
2018-08-06T10:28:06.822Z,36.27
2018-08-06T10:29:06.820Z,36.53
2018-08-06T10:30:06.870Z,36.64
2018-08-06T10:31:06.818Z,36.66
2018-08-06T10:32:06.813Z,36.81
2018-08-06T10:33:06.819Z,36.98
2018-08-06T10:34:06.819Z,36.87
2018-08-06T10:35:06.809Z,36.87
2018-08-06T10:36:06.804Z,36.94
2018-08-06T10:37:06.804Z,36.93
2018-08-06T10:38:06.803Z,37.21
2018-08-06T10:39:06.801Z,37.43
2018-08-06T10:40:06.797Z,37.88
2018-08-06T10:41:06.796Z,38.25
2018-08-06T10:42:06.795Z,38.57
2018-08-06T10:43:06.791Z,39.09
2018-08-06T10:44:06.791Z,39.29
2018-08-06T10:45:06.793Z,39.45
2018-08-06T10:46:06.791Z,39.26
2018-08-06T10:47:06.789Z,39.32
2018-08-06T10:48:06.787Z,39.62
2018-08-06T10:49:06.787Z,39.98
2018-08-06T10:50:06.786Z,40.29
2018-08-06T10:51:06.790Z,40.31
2018-08-06T10:52:06.784Z,40.34
2018-08-06T10:53:06.793Z,40.54
2018-08-06T10:54:06.782Z,40.54
2018-08-06T10:55:06.783Z,40.62
2018-08-06T10:56:06.783Z,40.74
2018-08-06T10:57:06.782Z,40.80
2018-08-06T10:58:06.785Z,40.79
2018-08-06T10:59:06.785Z,40.77
2018-08-06T11:00:06.784Z,40.80
2018-08-06T11:01:06.783Z,40.87
2018-08-06T11:02:06.793Z,41.13
2018-08-06T11:03:06.783Z,41.41
2018-08-06T11:04:06.782Z,41.90
2018-08-06T11:05:06.789Z,42.24
2018-08-06T11:06:06.785Z,42.62
2018-08-06T11:07:06.785Z,43.00
2018-08-06T11:08:06.787Z,43.18
2018-08-06T11:09:06.788Z,43.02
2018-08-06T11:10:06.798Z,42.95
2018-08-06T11:11:06.790Z,42.71
2018-08-06T11:12:06.789Z,42.73
2018-08-06T11:13:06.792Z,42.70
2018-08-06T11:14:06.869Z,42.83
2018-08-06T11:15:06.793Z,42.87
2018-08-06T11:16:06.795Z,42.83
2018-08-06T11:17:06.798Z,42.62
2018-08-06T11:18:06.799Z,42.77
2018-08-06T11:19:06.802Z,42.93
2018-08-06T11:20:06.801Z,43.02
2018-08-06T11:21:06.803Z,42.98
2018-08-06T11:22:06.806Z,42.49
2018-08-06T11:23:06.808Z,42.11
2018-08-06T11:24:06.814Z,42.06
2018-08-06T11:25:06.815Z,41.82
2018-08-06T11:26:06.817Z,42.04
2018-08-06T11:27:06.814Z,42.09
2018-08-06T11:28:06.822Z,42.17
2018-08-06T11:29:06.834Z,42.49
2018-08-06T11:30:06.832Z,42.80
2018-08-06T11:31:06.825Z,42.86
2018-08-06T11:32:06.826Z,42.81
2018-08-06T11:33:06.833Z,42.71
2018-08-06T11:34:06.834Z,42.78
2018-08-06T11:35:06.834Z,42.92
2018-08-06T11:36:06.838Z,43.02
2018-08-06T11:37:06.841Z,42.91
2018-08-06T11:38:06.845Z,43.19
2018-08-06T11:39:06.847Z,43.56
2018-08-06T11:40:06.857Z,43.81
2018-08-06T11:41:06.858Z,43.98
2018-08-06T11:42:06.860Z,44.03
2018-08-06T11:43:06.860Z,43.75
2018-08-06T11:44:06.877Z,43.56
2018-08-06T11:45:06.866Z,43.22
2018-08-06T11:46:06.869Z,43.14
2018-08-06T11:47:06.872Z,43.02
2018-08-06T11:48:06.874Z,42.65
2018-08-06T11:49:06.884Z,42.35
2018-08-06T11:50:06.877Z,42.09
2018-08-06T11:51:06.885Z,41.58
2018-08-06T11:52:06.885Z,41.25
2018-08-06T11:53:06.884Z,40.67
2018-08-06T11:54:06.885Z,40.18
2018-08-06T11:55:06.885Z,39.94
2018-08-06T11:56:06.890Z,39.51
2018-08-06T11:57:06.889Z,39.23
2018-08-06T11:58:06.889Z,38.91
2018-08-06T11:59:06.891Z,38.59
2018-08-06T12:00:06.896Z,38.37
2018-08-06T12:01:06.894Z,38.35
2018-08-06T12:02:06.900Z,38.00
2018-08-06T12:03:06.892Z,37.89
2018-08-06T12:04:06.893Z,37.82
2018-08-06T12:05:06.897Z,37.96
2018-08-06T12:06:06.894Z,38.06
2018-08-06T12:07:06.894Z,38.06
2018-08-06T12:08:06.893Z,38.16
2018-08-06T12:09:06.897Z,38.20
2018-08-06T12:10:06.907Z,38.32
2018-08-06T12:11:06.902Z,38.35
2018-08-06T12:12:06.897Z,38.91
2018-08-06T12:13:06.895Z,38.88
2018-08-06T12:14:06.897Z,38.90
2018-08-06T12:15:06.900Z,39.09
2018-08-06T12:16:06.902Z,39.60
2018-08-06T12:17:06.898Z,39.89
2018-08-06T12:18:06.906Z,40.01
2018-08-06T12:19:06.899Z,40.08
2018-08-06T12:20:06.899Z,40.19
2018-08-06T12:21:06.905Z,40.32
2018-08-06T12:22:06.900Z,40.67
2018-08-06T12:23:06.903Z,41.14
2018-08-06T12:24:06.900Z,41.47
2018-08-06T12:25:06.901Z,41.74
2018-08-06T12:26:07.019Z,42.02
2018-08-06T12:27:06.911Z,42.01
2018-08-06T12:28:06.899Z,41.93
2018-08-06T12:29:06.902Z,42.05
2018-08-06T12:30:06.899Z,42.05
2018-08-06T12:31:06.907Z,42.06
2018-08-06T12:32:06.898Z,42.05
2018-08-06T12:33:06.899Z,41.69
2018-08-06T12:34:06.899Z,41.35
2018-08-06T12:35:06.898Z,41.04
2018-08-06T12:36:06.896Z,41.06
2018-08-06T12:37:06.900Z,41.06
2018-08-06T12:38:06.955Z,40.98
2018-08-06T12:39:06.896Z,40.46
2018-08-06T12:40:06.894Z,40.16
2018-08-06T12:41:06.893Z,39.88
2018-08-06T12:42:06.893Z,39.52
2018-08-06T12:43:06.889Z,39.17
2018-08-06T12:44:06.888Z,38.88
2018-08-06T12:45:06.888Z,38.09
2018-08-06T12:46:06.894Z,37.47
2018-08-06T12:47:06.885Z,37.17
2018-08-06T12:48:06.883Z,36.90
2018-08-06T12:49:06.882Z,36.84
2018-08-06T12:50:06.884Z,36.94
2018-08-06T12:51:06.883Z,37.41
2018-08-06T12:52:06.878Z,37.49
2018-08-06T12:53:06.877Z,37.79
2018-08-06T12:54:06.875Z,37.94